KHBG/HBG METAR and TAF weather

Enter ICAO airport designator
Station Type Date Time Source
KHBG METAR 2021/01/16 02:53 UTC NOAA

KHBG 160253Z AUTO 00000KT 10SM CLR 03/M04 A2993 RMK AO2 SLP136 T00281039 51020


Station Type Date Time Source
KHBG Decoded METAR 2021/01/16 02:53 UTC NOAA

HATTIESBURG CHAIN MUNICIPAL, MS, United States (KHBG) 31-16N 89-15W 44M
Jan 15, 2021 - 09:53 PM EST / 2021.01.16 0253 UTC
Wind: Calm:0
Visibility: 10 mile(s):0
Sky conditions: clear
Temperature: 37.0 F (2.8 C)
Dew Point: 25.0 F (-3.9 C)
Relative Humidity: 61%
Pressure (altimeter): 29.93 in. Hg (1013 hPa)
Pressure tendency: 0.06 inches (2.0 hPa) higher than three hours ago
ob: KHBG 160253Z AUTO 00000KT 10SM CLR 03/M04 A2993 RMK AO2 SLP136 T00281039 51020
cycle: 3

Station Type Date Time Source
KHBG TAF 2021/01/15 18:22 UTC NOAA

TAF KHBG 151720Z 1518/1618 30014G24KT P6SM SKC
FM151900 27016G24KT P6SM SKC
FM160100 25010KT P6SM SKC

Example: see airport list